Airfield :
LOGIN :

Register | Disclaimer

   EN    FR    IT 

 










Legend :    VFR   Marginal VFR   IFR   Intensive IFR   Very Intensive IFR
Visi :
Ceiling :
>= 8 km
>= 3000ft
5 to 8 km
1000 to 3000 ft
1500m to 5 km
500 to 1000 ft
800 to 1500m
200 to 500 ft
< 800m
< 200 ft
Symbols :   Thunderstorms  Fog  Heavy snow  Heavy precipitations  Wind > 20 kt
SIGMETs :     Misc.  Thunderstorms  Icing  Turbulence  Mountain Waves  Volcanic Ashes






- Airport Elevation : 171 ft
- IATA code : EGC


LFBE - Bergerac

CURRENT METAR :
  • 220900Z AUTO 23009KT 170V260 9999 -DZ SCT011 SCT021 BKN036 17/15 Q1020 TEMPO 3000 RA BKN008

EXPIRED METARs :
  • 220830Z AUTO 22007KT 190V250 3200 -RA BR BKN011 OVC016 16/15 Q1020 TEMPO RA BKN008
  • 220800Z AUTO 22007KT 190V250 9999 BKN015 OVC028 16/15 Q1020 TEMPO 3000 RA BKN008
  • 220730Z AUTO 22006KT 190V260 9999 -DZ BKN015/// OVC028/// ///TCU 16/15 Q1020 TEMPO 3000 RA BKN008
  • 220700Z AUTO 23005KT 210V270 9999 SCT018/// OVC033/// //////TCU 16/14 Q1020 TEMPO 3000 RA BKN008
  • 220630Z AUTO 23006KT 200V270 9999 FEW023 BKN040 OVC049 16/14 Q1020 TEMPO 3000 RA BKN008
  • 220600Z AUTO 22006KT 190V250 9999 FEW023 OVC054 16/14 Q1020 TEMPO 3000 RA BKN008
  • 220530Z AUTO 22005KT 180V240 9999 BKN022 BKN038 OVC058 16/14 Q1020 TEMPO 3000 RA BKN005
  • 220500Z AUTO 21005KT 9999 ///TCU 16/14 Q1020 TEMPO BKN010
  • 220430Z AUTO 21004KT 9999 SCT027/// OVC082/// //////TCU 15/14 Q1020 TEMPO BKN010

TAF TAF LFBE
Valid from the 22 at 06:00 until the 23 at 06:00 UTC


220500Z 2206/2306 22005KT 9999 BKN020
TEMPO 2206/2218 3000 RA BKN008
PROB30
TEMPO 2303/2306 2000 MIFG



MET'MAP, your aeronautical weather chart ! - Copyright ORBIFLY December 2007 - Disclaimer

ORBIFLY MET'MAP TEAM :

Programming & Development : Alexandra Zaïnal
Original concept : Baudouin d'Aumeries
Technical & hardware support : Manuel Goepfert
Assistance : Marc-Olivier Méhu




SOURCES & CREDITS :

   NOAA